Time;durP1;ratioP1;P1;durP2;ratioP2;P2;SDS_P1;SDS_P2;PMS_P1;PMS_P2;Temp;Humidity;BMP_temperature;BMP_pressure;BME280_temperature;BME280_humidity;BME280_pressure;Samples;Min_cycle;Max_cycle;Signal;HPM_P1;HPM_P2
2023/04/12 00:00:54;;;;;;;10.25;9.65;;;;;;;;;;4992487;28;20037;-71
2023/04/12 00:03:20;;;;;;;9.52;8.93;;;;;;;;;;4993898;28;20034;-70
2023/04/12 00:05:47;;;;;;;10.32;9.73;;;;;;;;;;4990655;28;20022;-71
2023/04/12 00:08:13;;;;;;;10.45;9.65;;;;;;;;;;5025529;28;20701;-71
2023/04/12 00:10:39;;;;;;;9.65;9.05;;;;;;;;;;5024629;28;20633;-72
2023/04/12 00:13:04;;;;;;;10.30;9.70;;;;;;;;;;5022675;28;20045;-71
2023/04/12 00:15:30;;;;;;;9.48;8.88;;;;;;;;;;4994690;28;20136;-71
2023/04/12 00:17:55;;;;;;;9.80;9.20;;;;;;;;;;4991749;28;20038;-71
2023/04/12 00:20:20;;;;;;;9.70;9.05;;;;;;;;;;4996266;28;20042;-71
2023/04/12 00:22:46;;;;;;;10.02;9.13;;;;;;;;;;4993969;28;20068;-71
2023/04/12 00:25:11;;;;;;;9.25;8.65;;;;;;;;;;4989547;28;20365;-71
2023/04/12 00:27:37;;;;;;;10.00;9.30;;;;;;;;;;4992440;28;20034;-71
2023/04/12 00:30:02;;;;;;;9.80;9.20;;;;;;;;;;4995503;28;20069;-71
2023/04/12 00:32:28;;;;;;;9.85;9.25;;;;;;;;;;4991836;28;20023;-71
2023/04/12 00:34:53;;;;;;;10.30;9.70;;;;;;;;;;4994395;28;20474;-70
2023/04/12 00:37:19;;;;;;;10.38;9.77;;;;;;;;;;4995056;28;20109;-71
2023/04/12 00:39:44;;;;;;;10.60;9.95;;;;;;;;;;4995349;28;20034;-71
2023/04/12 00:42:10;;;;;;;10.13;9.52;;;;;;;;;;4993011;28;20034;-71
2023/04/12 00:44:36;;;;;;;9.98;9.38;;;;;;;;;;4993292;28;20054;-72
2023/04/12 00:47:05;;;;;;;11.23;10.27;;;;;;;;;;4992754;28;20049;-72
2023/04/12 00:49:32;;;;;;;10.40;9.70;;;;;;;;;;4996768;28;20121;-71
2023/04/12 00:52:07;;;;;;;11.73;11.02;;;;;;;;;;5028150;28;20534;-73
2023/04/12 00:54:33;;;;;;;11.45;10.65;;;;;;;;;;4997716;28;20044;-71
2023/04/12 00:57:02;;;;;;;11.70;11.00;;;;;;;;;;4996753;28;20153;-72
2023/04/12 00:59:28;;;;;;;12.32;11.52;;;;;;;;;;4999071;28;20046;-72
2023/04/12 01:01:55;;;;;;;12.60;11.90;;;;;;;;;;4999855;28;20094;-71
2023/04/12 01:04:21;;;;;;;13.65;12.85;;;;;;;;;;4996892;28;20038;-70
2023/04/12 01:07:14;;;;;;;13.43;12.60;;;;;;;;;;4995386;28;20038;-71
2023/04/12 01:10:18;;;;;;;14.10;13.20;;;;;;;;;;4994497;28;20033;-72
2023/04/12 01:13:08;;;;;;;13.63;12.82;;;;;;;;;;4998584;28;20068;-71
2023/04/12 01:15:38;;;;;;;15.43;14.52;;;;;;;;;;5011692;28;20082;-70
2023/04/12 01:18:08;;;;;;;15.02;14.20;;;;;;;;;;5025567;28;20558;-73
2023/04/12 01:20:43;;;;;;;18.23;17.20;;;;;;;;;;4997673;28;20418;-72
2023/04/12 01:23:15;;;;;;;16.83;15.68;;;;;;;;;;5027194;28;20077;-71
2023/04/12 01:26:08;;;;;;;18.73;17.70;;;;;;;;;;4993871;28;20030;-71
2023/04/12 01:28:37;;;;;;;19.23;18.13;;;;;;;;;;4997708;28;20038;-72
2023/04/12 01:31:05;;;;;;;19.45;18.40;;;;;;;;;;4995706;28;20080;-72
2023/04/12 01:33:35;;;;;;;22.38;20.80;;;;;;;;;;4997115;28;20041;-69
2023/04/12 01:36:04;;;;;;;24.05;22.70;;;;;;;;;;5000003;28;20033;-67
2023/04/12 01:38:31;;;;;;;24.85;23.45;;;;;;;;;;4999210;28;20574;-69
2023/04/12 01:40:56;;;;;;;24.52;23.23;;;;;;;;;;4997219;28;20038;-70
2023/04/12 01:43:22;;;;;;;23.17;21.92;;;;;;;;;;4998544;28;20478;-69
2023/04/12 01:45:47;;;;;;;22.90;21.02;;;;;;;;;;5003946;28;20121;-70
2023/04/12 01:48:13;;;;;;;23.35;22.10;;;;;;;;;;4996614;28;20145;-67
2023/04/12 01:51:00;;;;;;;22.35;21.15;;;;;;;;;;4995528;28;20634;-67
2023/04/12 01:53:49;;;;;;;19.95;18.88;;;;;;;;;;5026922;28;20053;-67
2023/04/12 01:56:16;;;;;;;17.02;16.08;;;;;;;;;;4995172;28;20238;-67
2023/04/12 01:58:45;;;;;;;19.42;18.38;;;;;;;;;;4991971;28;20045;-67
2023/04/12 02:01:14;;;;;;;19.90;18.83;;;;;;;;;;4993750;28;20037;-68
2023/04/12 02:03:43;;;;;;;17.42;16.38;;;;;;;;;;4994312;28;20116;-68
2023/04/12 02:06:09;;;;;;;17.08;16.13;;;;;;;;;;4995205;28;20115;-68
2023/04/12 02:08:35;;;;;;;15.38;14.50;;;;;;;;;;4994791;28;20149;-68
2023/04/12 02:11:09;;;;;;;16.00;15.10;;;;;;;;;;4994721;28;20508;-68
2023/04/12 02:13:35;;;;;;;15.50;14.63;;;;;;;;;;4998384;28;20099;-68
2023/04/12 02:16:01;;;;;;;15.98;15.10;;;;;;;;;;4997215;28;20908;-68
2023/04/12 02:18:27;;;;;;;16.23;15.23;;;;;;;;;;4994895;28;20077;-67
2023/04/12 02:20:53;;;;;;;17.70;16.70;;;;;;;;;;4993564;28;20053;-67
2023/04/12 02:23:18;;;;;;;17.00;16.02;;;;;;;;;;4996385;28;20065;-68
2023/04/12 02:25:45;;;;;;;16.33;15.40;;;;;;;;;;5026087;28;20041;-68
2023/04/12 02:28:11;;;;;;;14.57;13.73;;;;;;;;;;4996869;28;20033;-68
2023/04/12 02:30:37;;;;;;;15.38;14.50;;;;;;;;;;4996123;28;20082;-68
2023/04/12 02:33:04;;;;;;;15.80;14.60;;;;;;;;;;4993289;28;20077;-68
2023/04/12 02:35:30;;;;;;;15.63;14.52;;;;;;;;;;4995483;28;20030;-68
2023/04/12 02:37:56;;;;;;;12.95;12.18;;;;;;;;;;4994815;28;20108;-68
2023/04/12 02:40:22;;;;;;;14.52;13.70;;;;;;;;;;5025465;28;20042;-68
2023/04/12 02:42:47;;;;;;;13.52;12.68;;;;;;;;;;5024776;28;20038;-68
2023/04/12 02:45:13;;;;;;;14.07;13.27;;;;;;;;;;4991899;28;20046;-70
2023/04/12 02:47:39;;;;;;;12.73;11.98;;;;;;;;;;4994920;28;20021;-67
2023/04/12 02:50:06;;;;;;;13.13;12.35;;;;;;;;;;4994624;28;20046;-69
2023/04/12 02:52:31;;;;;;;14.32;13.52;;;;;;;;;;4995306;28;20345;-68
2023/04/12 02:54:57;;;;;;;12.57;11.85;;;;;;;;;;4993836;28;20095;-68
2023/04/12 02:57:23;;;;;;;28.48;14.00;;;;;;;;;;4995202;28;20054;-68
2023/04/12 02:59:52;;;;;;;13.82;13.02;;;;;;;;;;4995583;28;20408;-68
2023/04/12 03:02:18;;;;;;;14.73;12.93;;;;;;;;;;4992960;28;20030;-67
2023/04/12 03:04:45;;;;;;;13.55;12.75;;;;;;;;;;4995752;28;20124;-68
2023/04/12 03:07:13;;;;;;;13.95;13.15;;;;;;;;;;4993908;28;20030;-68
2023/04/12 03:09:41;;;;;;;13.35;12.55;;;;;;;;;;4992448;28;20022;-68
2023/04/12 03:12:07;;;;;;;13.82;13.00;;;;;;;;;;4995064;28;20480;-68
2023/04/12 03:14:32;;;;;;;14.70;13.85;;;;;;;;;;4996249;28;20030;-68
2023/04/12 03:16:57;;;;;;;13.63;12.82;;;;;;;;;;4994069;28;20137;-68
2023/04/12 03:19:23;;;;;;;14.35;13.55;;;;;;;;;;4994787;28;20074;-68
2023/04/12 03:21:48;;;;;;;13.93;13.13;;;;;;;;;;4997820;28;20029;-68
2023/04/12 03:24:13;;;;;;;15.23;14.35;;;;;;;;;;4992784;28;20111;-66
2023/04/12 03:26:40;;;;;;;15.38;14.48;;;;;;;;;;4992303;28;20044;-67
2023/04/12 03:29:07;;;;;;;16.05;15.02;;;;;;;;;;4996594;28;20054;-67
2023/04/12 03:31:33;;;;;;;17.48;16.48;;;;;;;;;;4995120;28;20056;-67
2023/04/12 03:33:59;;;;;;;15.85;14.95;;;;;;;;;;4993281;28;20041;-67
2023/04/12 03:36:26;;;;;;;15.05;14.15;;;;;;;;;;4991422;28;20037;-67
2023/04/12 03:38:52;;;;;;;15.23;14.32;;;;;;;;;;4998013;28;20427;-67
2023/04/12 03:41:17;;;;;;;16.27;15.25;;;;;;;;;;4994371;28;20034;-67
2023/04/12 03:43:42;;;;;;;17.42;16.42;;;;;;;;;;4993425;28;20038;-67
2023/04/12 03:46:08;;;;;;;18.13;17.13;;;;;;;;;;4994085;28;20088;-67
2023/04/12 03:48:33;;;;;;;18.40;17.30;;;;;;;;;;4995599;28;20064;-67
2023/04/12 03:51:06;;;;;;;16.52;15.63;;;;;;;;;;4995419;28;20077;-60
2023/04/12 03:53:31;;;;;;;16.48;15.52;;;;;;;;;;4997926;28;20458;-59
2023/04/12 03:55:57;;;;;;;17.85;16.65;;;;;;;;;;4997326;28;20053;-60
2023/04/12 03:58:22;;;;;;;17.90;16.88;;;;;;;;;;4994981;28;20541;-60
2023/04/12 04:00:48;;;;;;;16.73;15.82;;;;;;;;;;4991775;28;20476;-59
2023/04/12 04:03:14;;;;;;;17.48;16.48;;;;;;;;;;4994710;28;20085;-59
2023/04/12 04:05:39;;;;;;;18.38;17.27;;;;;;;;;;4993835;28;20029;-59
2023/04/12 04:08:06;;;;;;;16.63;15.73;;;;;;;;;;4995624;28;20535;-58
2023/04/12 04:10:32;;;;;;;17.15;16.23;;;;;;;;;;4996411;28;20060;-59
2023/04/12 04:12:57;;;;;;;18.00;17.00;;;;;;;;;;4993949;28;20045;-58
2023/04/12 04:15:25;;;;;;;17.52;16.52;;;;;;;;;;5022771;28;20147;-58
2023/04/12 04:17:51;;;;;;;19.23;18.13;;;;;;;;;;4992941;28;20454;-58
2023/04/12 04:20:17;;;;;;;18.15;17.15;;;;;;;;;;5028203;28;20040;-58
2023/04/12 04:22:44;;;;;;;19.60;18.50;;;;;;;;;;4993834;28;20040;-58
2023/04/12 04:25:13;;;;;;;17.15;16.20;;;;;;;;;;4996966;28;20534;-58
2023/04/12 04:27:40;;;;;;;18.13;17.13;;;;;;;;;;4996302;28;20411;-57
2023/04/12 04:30:06;;;;;;;18.00;17.00;;;;;;;;;;4996815;28;20065;-58
2023/04/12 04:32:32;;;;;;;19.10;18.00;;;;;;;;;;5030427;28;20571;-58
2023/04/12 04:34:58;;;;;;;19.08;17.98;;;;;;;;;;5000749;28;20045;-59
2023/04/12 04:37:25;;;;;;;18.75;17.65;;;;;;;;;;5000293;28;20037;-59
2023/04/12 04:39:50;;;;;;;19.05;17.85;;;;;;;;;;4996649;28;20060;-58
2023/04/12 04:42:16;;;;;;;19.05;17.95;;;;;;;;;;4995309;28;20468;-57
2023/04/12 04:44:41;;;;;;;20.38;19.27;;;;;;;;;;4997189;28;20030;-58
2023/04/12 04:47:07;;;;;;;20.65;19.55;;;;;;;;;;5030646;28;20038;-58
2023/04/12 04:49:33;;;;;;;20.92;19.77;;;;;;;;;;4998798;28;20041;-58
2023/04/12 04:51:58;;;;;;;19.38;18.30;;;;;;;;;;4995496;28;20085;-58
2023/04/12 04:54:23;;;;;;;20.67;19.48;;;;;;;;;;4996839;28;20047;-58
2023/04/12 04:56:49;;;;;;;20.17;19.08;;;;;;;;;;4995779;28;20041;-58
2023/04/12 04:59:16;;;;;;;22.95;21.75;;;;;;;;;;5000348;28;20755;-58
2023/04/12 05:01:41;;;;;;;22.52;21.23;;;;;;;;;;5004363;28;20037;-58
2023/04/12 05:04:07;;;;;;;22.33;21.13;;;;;;;;;;5027729;28;20038;-58
2023/04/12 05:06:32;;;;;;;19.42;18.35;;;;;;;;;;4996118;28;20049;-59
2023/04/12 05:09:00;;;;;;;19.52;18.33;;;;;;;;;;4995042;28;20135;-59
2023/04/12 05:11:26;;;;;;;19.02;18.02;;;;;;;;;;4995649;28;20053;-59
2023/04/12 05:13:51;;;;;;;21.60;20.40;;;;;;;;;;4997050;28;20026;-59
2023/04/12 05:16:17;;;;;;;22.10;20.90;;;;;;;;;;4997221;28;20124;-60
2023/04/12 05:18:43;;;;;;;25.20;23.83;;;;;;;;;;4997788;28;20034;-58
2023/04/12 05:21:08;;;;;;;22.15;20.95;;;;;;;;;;4994863;28;20034;-58
2023/04/12 05:23:41;;;;;;;22.55;21.35;;;;;;;;;;4998086;28;20103;-58
2023/04/12 05:26:06;;;;;;;22.77;21.58;;;;;;;;;;4995819;28;20145;-58
2023/04/12 05:28:32;;;;;;;21.80;20.60;;;;;;;;;;4996466;28;20105;-59
2023/04/12 05:30:57;;;;;;;22.50;21.30;;;;;;;;;;4995219;28;20034;-57
2023/04/12 05:33:23;;;;;;;22.77;21.58;;;;;;;;;;4996573;28;20491;-58
2023/04/12 05:35:48;;;;;;;21.60;20.40;;;;;;;;;;4999340;28;20057;-58
2023/04/12 05:38:14;;;;;;;20.10;19.00;;;;;;;;;;4997871;28;20030;-58
2023/04/12 05:40:40;;;;;;;21.08;19.98;;;;;;;;;;4996296;28;20029;-58
2023/04/12 05:43:06;;;;;;;20.45;19.35;;;;;;;;;;4996290;28;20526;-59
2023/04/12 05:45:31;;;;;;;28.20;26.70;;;;;;;;;;4995811;28;20064;-58
2023/04/12 05:47:56;;;;;;;26.33;24.88;;;;;;;;;;4996283;28;20092;-58
2023/04/12 05:50:22;;;;;;;27.40;26.00;;;;;;;;;;4994416;28;20630;-58
2023/04/12 05:52:49;;;;;;;26.35;24.95;;;;;;;;;;4999423;28;20042;-65
2023/04/12 05:55:16;;;;;;;26.70;25.30;;;;;;;;;;4997561;28;20541;-58
2023/04/12 05:57:43;;;;;;;26.63;25.23;;;;;;;;;;4995247;28;20046;-58
2023/04/12 06:00:13;;;;;;;24.52;23.23;;;;;;;;;;4997130;28;20066;-58
2023/04/12 06:02:39;;;;;;;23.95;22.65;;;;;;;;;;4995133;28;20038;-57
2023/04/12 06:05:05;;;;;;;13.65;12.85;;;;;;;;;;4997974;28;20042;-58
2023/04/12 06:07:30;;;;;;;14.90;14.00;;;;;;;;;;4994944;28;20528;-58
2023/04/12 06:09:56;;;;;;;12.40;11.68;;;;;;;;;;4992247;28;20038;-58
2023/04/12 06:12:21;;;;;;;12.57;11.88;;;;;;;;;;5023564;28;20515;-57
2023/04/12 06:14:46;;;;;;;11.75;11.05;;;;;;;;;;4994821;28;20445;-59
2023/04/12 06:17:12;;;;;;;11.98;11.27;;;;;;;;;;4996936;28;20060;-58
2023/04/12 06:19:37;;;;;;;13.40;12.60;;;;;;;;;;4995146;28;20441;-58
2023/04/12 06:22:03;;;;;;;13.07;12.32;;;;;;;;;;4995971;28;20850;-59
2023/04/12 06:24:28;;;;;;;11.88;11.18;;;;;;;;;;4996386;28;20042;-59
2023/04/12 06:26:53;;;;;;;12.18;11.27;;;;;;;;;;4994151;28;20426;-59
2023/04/12 06:29:19;;;;;;;12.45;11.75;;;;;;;;;;4996538;28;20493;-59
2023/04/12 06:31:44;;;;;;;12.65;11.95;;;;;;;;;;5029156;28;20038;-59
2023/04/12 06:34:09;;;;;;;12.88;12.15;;;;;;;;;;4993540;28;20384;-59
2023/04/12 06:36:35;;;;;;;16.10;15.20;;;;;;;;;;4994590;28;20037;-60
2023/04/12 06:39:00;;;;;;;15.75;14.85;;;;;;;;;;4995345;28;20069;-58
2023/04/12 06:41:25;;;;;;;13.00;12.20;;;;;;;;;;4993424;28;20057;-59
2023/04/12 06:43:51;;;;;;;11.52;10.82;;;;;;;;;;4995282;28;20025;-60
2023/04/12 06:46:24;;;;;;;13.35;12.57;;;;;;;;;;4994277;28;20049;-59
2023/04/12 06:48:50;;;;;;;13.93;13.10;;;;;;;;;;4994615;28;20034;-59
2023/04/12 06:51:16;;;;;;;17.55;16.45;;;;;;;;;;4996574;28;20114;-59
2023/04/12 06:53:41;;;;;;;12.88;12.07;;;;;;;;;;4993248;28;20038;-59
2023/04/12 06:56:07;;;;;;;12.95;12.23;;;;;;;;;;4997210;28;20213;-59
2023/04/12 06:58:32;;;;;;;13.18;12.38;;;;;;;;;;4994409;28;20038;-59
2023/04/12 07:01:08;;;;;;;12.25;11.55;;;;;;;;;;4996825;28;20092;-60
2023/04/12 07:03:34;;;;;;;12.02;11.32;;;;;;;;;;4993926;28;20037;-60
2023/04/12 07:06:01;;;;;;;11.93;11.23;;;;;;;;;;4997971;28;20049;-61
2023/04/12 07:08:28;;;;;;;12.10;11.40;;;;;;;;;;4995317;28;20515;-60
2023/04/12 07:10:54;;;;;;;12.10;11.40;;;;;;;;;;4995709;28;20112;-60
2023/04/12 07:13:19;;;;;;;10.38;9.77;;;;;;;;;;4995527;28;20038;-60
2023/04/12 07:15:45;;;;;;;11.25;10.55;;;;;;;;;;4993671;28;20037;-59
2023/04/12 07:18:11;;;;;;;11.40;10.70;;;;;;;;;;4991876;28;20038;-59
2023/04/12 07:20:36;;;;;;;10.25;9.65;;;;;;;;;;5028528;28;20104;-59
2023/04/12 07:23:01;;;;;;;10.52;9.90;;;;;;;;;;4994489;28;20049;-59
2023/04/12 07:25:27;;;;;;;10.50;9.90;;;;;;;;;;4992372;28;20286;-59
2023/04/12 07:27:52;;;;;;;11.07;10.38;;;;;;;;;;4996455;28;20065;-59
2023/04/12 07:30:17;;;;;;;10.43;9.82;;;;;;;;;;4995382;28;20116;-60
2023/04/12 07:32:43;;;;;;;10.65;9.98;;;;;;;;;;4992905;28;20033;-60
2023/04/12 07:35:08;;;;;;;10.63;9.98;;;;;;;;;;4996305;28;20068;-60
2023/04/12 07:37:34;;;;;;;12.27;11.38;;;;;;;;;;4994273;28;20498;-61
2023/04/12 07:40:00;;;;;;;11.07;10.40;;;;;;;;;;4994857;28;20053;-61
2023/04/12 07:42:26;;;;;;;10.77;10.13;;;;;;;;;;4993857;28;20396;-61
2023/04/12 07:44:51;;;;;;;10.95;10.27;;;;;;;;;;4996910;28;20034;-60
2023/04/12 07:47:16;;;;;;;11.48;10.80;;;;;;;;;;4992803;28;20068;-60
2023/04/12 07:49:42;;;;;;;11.35;10.65;;;;;;;;;;4994630;28;20165;-62
2023/04/12 07:52:07;;;;;;;11.50;10.82;;;;;;;;;;4995964;28;20034;-60
2023/04/12 07:54:33;;;;;;;12.00;11.30;;;;;;;;;;4998035;28;20045;-61
2023/04/12 07:56:59;;;;;;;11.35;10.65;;;;;;;;;;4985007;28;20357;-60
2023/04/12 07:59:25;;;;;;;12.07;11.38;;;;;;;;;;4991367;28;20048;-60
2023/04/12 08:01:50;;;;;;;13.23;12.43;;;;;;;;;;4994334;28;20021;-59
2023/04/12 08:04:15;;;;;;;11.40;10.70;;;;;;;;;;4998478;28;20080;-59
2023/04/12 08:06:41;;;;;;;11.10;10.40;;;;;;;;;;4996712;28;20038;-60
2023/04/12 08:09:07;;;;;;;11.35;10.65;;;;;;;;;;4993146;28;20524;-60
2023/04/12 08:11:34;;;;;;;11.65;10.95;;;;;;;;;;4992371;28;20042;-61
2023/04/12 08:14:00;;;;;;;11.93;11.13;;;;;;;;;;4995335;28;20049;-60
2023/04/12 08:16:26;;;;;;;12.93;12.15;;;;;;;;;;4994368;28;20117;-59
2023/04/12 08:18:51;;;;;;;11.55;10.85;;;;;;;;;;4994723;28;20030;-59
2023/04/12 08:21:17;;;;;;;11.90;11.20;;;;;;;;;;5000317;28;20049;-59
2023/04/12 08:23:42;;;;;;;11.82;11.13;;;;;;;;;;4993563;28;20048;-59
2023/04/12 08:26:08;;;;;;;11.50;10.70;;;;;;;;;;4994812;28;20045;-59
2023/04/12 08:28:33;;;;;;;11.85;11.15;;;;;;;;;;4995239;28;20630;-59
2023/04/12 08:30:59;;;;;;;12.77;12.07;;;;;;;;;;4993626;28;20039;-60
2023/04/12 08:33:24;;;;;;;12.23;11.52;;;;;;;;;;4991957;28;20464;-60
2023/04/12 08:35:51;;;;;;;11.93;11.23;;;;;;;;;;4994367;28;20058;-60
2023/04/12 08:38:17;;;;;;;11.88;11.18;;;;;;;;;;4992630;28;20029;-60
2023/04/12 08:40:43;;;;;;;14.25;13.35;;;;;;;;;;4992069;28;20034;-60
2023/04/12 08:43:10;;;;;;;13.07;12.18;;;;;;;;;;4991591;28;20041;-61
2023/04/12 08:45:36;;;;;;;11.77;11.07;;;;;;;;;;4995607;28;20045;-60
2023/04/12 08:48:03;;;;;;;11.93;11.23;;;;;;;;;;4993340;28;20049;-60
2023/04/12 08:50:30;;;;;;;12.50;11.70;;;;;;;;;;4993411;28;20038;-61
2023/04/12 08:52:57;;;;;;;11.40;10.70;;;;;;;;;;4993614;28;20034;-60
2023/04/12 08:55:22;;;;;;;11.88;11.18;;;;;;;;;;4992802;28;20030;-60
2023/04/12 08:57:51;;;;;;;11.73;11.02;;;;;;;;;;4994109;28;20820;-60
2023/04/12 09:00:17;;;;;;;11.60;10.90;;;;;;;;;;4993689;28;20090;-61
2023/04/12 09:02:45;;;;;;;12.13;11.43;;;;;;;;;;4991199;28;20026;-60
2023/04/12 09:05:11;;;;;;;12.75;12.00;;;;;;;;;;4993789;28;20041;-60
2023/04/12 09:07:36;;;;;;;12.07;11.38;;;;;;;;;;4992612;28;20034;-60
2023/04/12 09:10:03;;;;;;;12.48;11.77;;;;;;;;;;4995775;28;20369;-61
2023/04/12 09:12:29;;;;;;;12.27;11.57;;;;;;;;;;4996363;28;20084;-60
2023/04/12 09:15:16;;;;;;;12.15;11.45;;;;;;;;;;4997523;28;20069;-60
2023/04/12 09:17:42;;;;;;;10.82;10.18;;;;;;;;;;4997969;28;20037;-61
2023/04/12 09:20:16;;;;;;;11.30;10.60;;;;;;;;;;4997116;28;20030;-62
2023/04/12 09:22:46;;;;;;;11.35;10.65;;;;;;;;;;4992383;28;20041;-61
2023/04/12 09:25:12;;;;;;;10.35;9.75;;;;;;;;;;4996965;28;20470;-61
2023/04/12 09:27:49;;;;;;;10.82;10.18;;;;;;;;;;4997352;28;20133;-61
2023/04/12 09:30:15;;;;;;;10.30;9.70;;;;;;;;;;4996528;28;20038;-61
2023/04/12 09:32:41;;;;;;;10.98;10.27;;;;;;;;;;4996354;28;20035;-61
2023/04/12 09:35:07;;;;;;;10.10;9.50;;;;;;;;;;4996742;28;20510;-61
2023/04/12 09:37:32;;;;;;;10.40;9.80;;;;;;;;;;4996246;28;20863;-62
2023/04/12 09:40:08;;;;;;;10.52;9.93;;;;;;;;;;4994262;28;20049;-62
2023/04/12 09:42:35;;;;;;;11.82;11.10;;;;;;;;;;4996829;28;20243;-61
2023/04/12 09:45:19;;;;;;;10.65;9.90;;;;;;;;;;4997777;28;20038;-62
2023/04/12 09:47:44;;;;;;;10.98;10.30;;;;;;;;;;5001159;28;20030;-61
2023/04/12 09:50:19;;;;;;;9.93;9.32;;;;;;;;;;4997573;28;20054;-62
2023/04/12 09:52:44;;;;;;;10.43;9.82;;;;;;;;;;4999122;28;20157;-62
2023/04/12 09:55:10;;;;;;;11.82;11.13;;;;;;;;;;4995963;28;20124;-62
2023/04/12 09:57:41;;;;;;;10.57;9.98;;;;;;;;;;4997223;28;20038;-61
2023/04/12 10:00:12;;;;;;;10.52;9.90;;;;;;;;;;4996492;28;20048;-62
2023/04/12 10:02:41;;;;;;;10.18;9.57;;;;;;;;;;4998891;28;20046;-62
2023/04/12 10:05:07;;;;;;;10.93;10.25;;;;;;;;;;4996185;28;20041;-62
2023/04/12 10:07:36;;;;;;;10.02;9.32;;;;;;;;;;4998390;28;20034;-62
2023/04/12 10:10:03;;;;;;;9.57;8.98;;;;;;;;;;4997816;28;20047;-62
2023/04/12 10:12:29;;;;;;;12.02;11.32;;;;;;;;;;4994771;28;20208;-62
2023/04/12 10:14:54;;;;;;;10.80;10.10;;;;;;;;;;4997828;28;20100;-62
2023/04/12 10:17:24;;;;;;;10.27;9.68;;;;;;;;;;4993915;28;20033;-63
2023/04/12 10:19:51;;;;;;;11.85;11.15;;;;;;;;;;4994285;28;20484;-63
2023/04/12 10:22:17;;;;;;;11.95;11.25;;;;;;;;;;4996796;28;20049;-62
2023/04/12 10:24:42;;;;;;;12.48;11.68;;;;;;;;;;4990084;28;20037;-64
2023/04/12 10:27:09;;;;;;;13.52;12.73;;;;;;;;;;4993464;28;20042;-62
2023/04/12 10:29:37;;;;;;;13.82;13.02;;;;;;;;;;4994278;28;20049;-63
2023/04/12 10:32:19;;;;;;;12.50;11.75;;;;;;;;;;4993442;28;20045;-62
2023/04/12 10:34:49;;;;;;;11.38;10.68;;;;;;;;;;4996776;28;20096;-62
2023/04/12 10:37:15;;;;;;;12.93;12.18;;;;;;;;;;4995500;28;20050;-62
2023/04/12 10:39:42;;;;;;;11.48;10.77;;;;;;;;;;4993098;28;20061;-63
2023/04/12 10:42:27;;;;;;;11.73;11.02;;;;;;;;;;4992029;28;20046;-63
2023/04/12 10:45:14;;;;;;;12.05;11.20;;;;;;;;;;4994728;28;20093;-63
2023/04/12 10:47:49;;;;;;;11.65;10.95;;;;;;;;;;4992213;28;20057;-62
2023/04/12 10:50:29;;;;;;;11.30;10.60;;;;;;;;;;4995597;28;20097;-64
2023/04/12 10:53:14;;;;;;;12.70;11.90;;;;;;;;;;4992090;28;20037;-63
2023/04/12 10:55:41;;;;;;;10.20;9.60;;;;;;;;;;4990114;28;20037;-61
2023/04/12 10:58:08;;;;;;;12.25;11.43;;;;;;;;;;4993664;28;20029;-63
2023/04/12 11:00:55;;;;;;;12.07;11.35;;;;;;;;;;4995357;28;20034;-64
2023/04/12 11:03:21;;;;;;;11.88;11.18;;;;;;;;;;4996102;28;20030;-63
2023/04/12 11:06:01;;;;;;;11.45;10.75;;;;;;;;;;4992037;28;20045;-64
2023/04/12 11:08:28;;;;;;;13.00;12.18;;;;;;;;;;4995826;28;20149;-64
2023/04/12 11:11:04;;;;;;;13.77;12.98;;;;;;;;;;4992857;28;20056;-64
2023/04/12 11:13:35;;;;;;;12.10;11.40;;;;;;;;;;4992749;28;20051;-64
2023/04/12 11:16:05;;;;;;;12.07;11.38;;;;;;;;;;4992722;28;20029;-63
2023/04/12 11:18:36;;;;;;;12.25;11.35;;;;;;;;;;4993497;28;20030;-63
2023/04/12 11:21:03;;;;;;;12.10;11.40;;;;;;;;;;4992617;28;20038;-63
2023/04/12 11:23:30;;;;;;;11.48;10.77;;;;;;;;;;4995947;28;20649;-61
2023/04/12 11:25:56;;;;;;;11.45;10.75;;;;;;;;;;4994508;28;20042;-61
2023/04/12 11:28:22;;;;;;;12.50;11.73;;;;;;;;;;4993394;28;20421;-61
2023/04/12 11:30:57;;;;;;;11.70;11.00;;;;;;;;;;4993472;28;20080;-63
2023/04/12 11:33:39;;;;;;;11.18;10.48;;;;;;;;;;4990069;28;20137;-64
2023/04/12 11:36:06;;;;;;;13.00;12.20;;;;;;;;;;4991491;28;20041;-64
2023/04/12 11:38:33;;;;;;;13.35;12.45;;;;;;;;;;4994145;28;20037;-65
2023/04/12 11:40:59;;;;;;;11.82;11.13;;;;;;;;;;4991899;28;20134;-64
2023/04/12 11:43:24;;;;;;;12.70;11.90;;;;;;;;;;4992931;28;20121;-64
2023/04/12 11:45:55;;;;;;;13.90;13.10;;;;;;;;;;4993547;28;20046;-64
2023/04/12 11:48:21;;;;;;;13.05;12.30;;;;;;;;;;4994221;28;20390;-64
2023/04/12 11:50:46;;;;;;;12.80;12.00;;;;;;;;;;4991083;28;20053;-64
2023/04/12 11:53:12;;;;;;;12.93;12.13;;;;;;;;;;4992844;28;20034;-63
2023/04/12 11:55:37;;;;;;;14.10;12.88;;;;;;;;;;4992690;28;20061;-62
2023/04/12 11:58:02;;;;;;;12.45;11.75;;;;;;;;;;4990164;28;20515;-63
2023/04/12 12:00:30;;;;;;;13.38;12.57;;;;;;;;;;4990335;28;20548;-63
2023/04/12 12:02:56;;;;;;;14.23;13.43;;;;;;;;;;4992508;28;20030;-61
2023/04/12 12:05:22;;;;;;;13.85;13.05;;;;;;;;;;4995525;28;20069;-65
2023/04/12 12:07:48;;;;;;;14.10;13.30;;;;;;;;;;4994042;28;20069;-65
2023/04/12 12:10:13;;;;;;;14.70;13.80;;;;;;;;;;4994342;28;20042;-65
2023/04/12 12:12:42;;;;;;;15.38;14.48;;;;;;;;;;4992110;28;20093;-65
2023/04/12 12:15:07;;;;;;;15.10;14.20;;;;;;;;;;4994054;28;20038;-66
2023/04/12 12:17:38;;;;;;;15.40;14.50;;;;;;;;;;4993648;28;20047;-65
2023/04/12 12:20:04;;;;;;;;;;;;;;;;;;4995713;28;20030;-66
2023/04/12 12:22:29;;;;;;;12.35;11.65;;;;;;;;;;4993813;28;19917;-65
2023/04/12 12:24:57;;;;;;;16.00;15.07;;;;;;;;;;4992828;28;20030;-65
2023/04/12 12:27:24;;;;;;;14.45;13.65;;;;;;;;;;4994652;28;20089;-65
2023/04/12 12:29:52;;;;;;;14.82;14.00;;;;;;;;;;4991393;28;20045;-66
2023/04/12 12:32:18;;;;;;;14.30;13.40;;;;;;;;;;4992221;28;20034;-65
2023/04/12 12:34:55;;;;;;;14.68;13.85;;;;;;;;;;4994685;28;20041;-65
2023/04/12 12:37:25;;;;;;;14.13;13.32;;;;;;;;;;4993851;28;20653;-65
2023/04/12 12:40:06;;;;;;;14.68;13.88;;;;;;;;;;4990405;28;20031;-65
2023/04/12 12:42:35;;;;;;;14.80;13.93;;;;;;;;;;4993555;28;20037;-65
2023/04/12 12:45:03;;;;;;;13.48;12.68;;;;;;;;;;4991916;28;20061;-65
2023/04/12 12:47:28;;;;;;;13.73;12.93;;;;;;;;;;4996412;28;20253;-66
2023/04/12 12:49:54;;;;;;;13.82;13.02;;;;;;;;;;5001048;28;20049;-66
2023/04/12 12:52:19;;;;;;;13.18;12.38;;;;;;;;;;4997503;28;20045;-66
2023/04/12 12:54:44;;;;;;;13.85;13.05;;;;;;;;;;4996758;28;20045;-65
2023/04/12 12:57:10;;;;;;;14.15;13.35;;;;;;;;;;4998812;28;20114;-66
2023/04/12 12:59:35;;;;;;;15.50;14.60;;;;;;;;;;4997098;28;20109;-65
2023/04/12 13:02:01;;;;;;;15.20;14.20;;;;;;;;;;4996172;28;20030;-65
2023/04/12 13:04:27;;;;;;;14.70;13.80;;;;;;;;;;4998691;28;20100;-64
2023/04/12 13:06:52;;;;;;;15.25;14.35;;;;;;;;;;4998473;28;20070;-64
2023/04/12 13:09:18;;;;;;;14.30;13.48;;;;;;;;;;4998739;28;20066;-64
2023/04/12 13:11:43;;;;;;;15.20;14.30;;;;;;;;;;4994334;28;20081;-64
2023/04/12 13:14:08;;;;;;;13.95;13.05;;;;;;;;;;4999930;28;20044;-61
2023/04/12 13:16:34;;;;;;;13.75;12.95;;;;;;;;;;5001093;28;20029;-60
2023/04/12 13:19:00;;;;;;;13.95;13.15;;;;;;;;;;4999170;28;20034;-60
2023/04/12 13:21:26;;;;;;;12.95;12.15;;;;;;;;;;4994317;28;20085;-61
2023/04/12 13:23:51;;;;;;;12.80;12.07;;;;;;;;;;4998216;28;20034;-61
2023/04/12 13:26:16;;;;;;;12.73;11.93;;;;;;;;;;4998797;28;20405;-60
2023/04/12 13:28:42;;;;;;;12.98;12.18;;;;;;;;;;4996338;28;20033;-61
2023/04/12 13:31:07;;;;;;;13.43;12.63;;;;;;;;;;4995893;28;20048;-60
2023/04/12 13:33:32;;;;;;;13.25;12.45;;;;;;;;;;4994150;28;20109;-59
2023/04/12 13:35:58;;;;;;;13.60;12.80;;;;;;;;;;4996193;28;20472;-60
2023/04/12 13:38:23;;;;;;;15.85;14.95;;;;;;;;;;4997279;28;20372;-61
2023/04/12 13:40:48;;;;;;;12.95;12.23;;;;;;;;;;4994574;28;20035;-62
2023/04/12 13:43:14;;;;;;;13.88;13.07;;;;;;;;;;4997534;28;20065;-62
2023/04/12 13:45:39;;;;;;;13.88;13.07;;;;;;;;;;4996624;28;20148;-62
2023/04/12 13:48:04;;;;;;;15.20;14.30;;;;;;;;;;5003290;28;20046;-63
2023/04/12 13:50:30;;;;;;;17.67;16.67;;;;;;;;;;4998364;28;20121;-62
2023/04/12 13:52:55;;;;;;;18.05;17.05;;;;;;;;;;4993665;28;20046;-62
2023/04/12 13:55:21;;;;;;;16.92;15.93;;;;;;;;;;4998034;28;20512;-61
2023/04/12 13:57:46;;;;;;;16.75;15.75;;;;;;;;;;4996176;28;20145;-63
2023/04/12 14:00:12;;;;;;;15.43;14.52;;;;;;;;;;4997797;28;20910;-62
2023/04/12 14:02:38;;;;;;;15.40;14.50;;;;;;;;;;4995065;28;20479;-62
2023/04/12 14:05:03;;;;;;;15.52;14.63;;;;;;;;;;4996633;28;20045;-62
2023/04/12 14:07:29;;;;;;;16.30;15.40;;;;;;;;;;4999033;28;20022;-63
2023/04/12 14:09:56;;;;;;;15.82;14.93;;;;;;;;;;4996798;28;20037;-63
2023/04/12 14:12:21;;;;;;;15.52;14.63;;;;;;;;;;4996067;28;20164;-62
2023/04/12 14:14:47;;;;;;;15.95;15.05;;;;;;;;;;4998668;28;20162;-62
2023/04/12 14:17:12;;;;;;;14.88;14.05;;;;;;;;;;4993694;28;20129;-62
2023/04/12 14:19:37;;;;;;;15.18;14.32;;;;;;;;;;4996868;28;20034;-62